sensor_id;sensor_type;location;lat;lon;timestamp;P1;durP1;ratioP1;P2;durP2;ratioP2
72404;SDS011;60395;52.020;113.548;2023-03-20T00:02:43;91.18;;;15.00;;
72404;SDS011;60395;52.020;113.548;2023-03-20T00:05:50;67.45;;;16.25;;
72404;SDS011;60395;52.020;113.548;2023-03-20T00:08:57;72.03;;;20.95;;
72404;SDS011;60395;52.020;113.548;2023-03-20T00:12:15;102.85;;;28.85;;
72404;SDS011;60395;52.020;113.548;2023-03-20T00:15:25;132.00;;;49.45;;
72404;SDS011;60395;52.020;113.548;2023-03-20T00:18:30;120.60;;;51.67;;
72404;SDS011;60395;52.020;113.548;2023-03-20T00:21:33;131.00;;;51.60;;
72404;SDS011;60395;52.020;113.548;2023-03-20T00:24:36;124.50;;;49.97;;
72404;SDS011;60395;52.020;113.548;2023-03-20T00:27:43;122.00;;;45.78;;
72404;SDS011;60395;52.020;113.548;2023-03-20T00:30:47;109.47;;;43.77;;
72404;SDS011;60395;52.020;113.548;2023-03-20T00:33:50;116.35;;;43.55;;
72404;SDS011;60395;52.020;113.548;2023-03-20T00:36:58;111.93;;;40.25;;
72404;SDS011;60395;52.020;113.548;2023-03-20T00:40:03;111.18;;;39.80;;
72404;SDS011;60395;52.020;113.548;2023-03-20T00:43:07;87.05;;;27.73;;
72404;SDS011;60395;52.020;113.548;2023-03-20T00:46:17;103.07;;;32.92;;
72404;SDS011;60395;52.020;113.548;2023-03-20T00:49:23;95.47;;;33.73;;
72404;SDS011;60395;52.020;113.548;2023-03-20T00:52:32;68.00;;;25.48;;
72404;SDS011;60395;52.020;113.548;2023-03-20T00:55:35;89.53;;;34.70;;
72404;SDS011;60395;52.020;113.548;2023-03-20T00:58:40;52.30;;;24.10;;
72404;SDS011;60395;52.020;113.548;2023-03-20T01:01:43;50.25;;;18.77;;
72404;SDS011;60395;52.020;113.548;2023-03-20T01:04:48;33.33;;;10.80;;
72404;SDS011;60395;52.020;113.548;2023-03-20T01:07:52;32.50;;;10.82;;
72404;SDS011;60395;52.020;113.548;2023-03-20T01:10:58;31.38;;;16.38;;
72404;SDS011;60395;52.020;113.548;2023-03-20T01:14:01;33.75;;;11.82;;
72404;SDS011;60395;52.020;113.548;2023-03-20T01:17:05;26.67;;;12.00;;
72404;SDS011;60395;52.020;113.548;2023-03-20T01:20:23;21.95;;;10.35;;
72404;SDS011;60395;52.020;113.548;2023-03-20T01:23:28;20.50;;;8.57;;
72404;SDS011;60395;52.020;113.548;2023-03-20T01:26:38;19.48;;;10.02;;
72404;SDS011;60395;52.020;113.548;2023-03-20T01:29:46;22.67;;;10.33;;
72404;SDS011;60395;52.020;113.548;2023-03-20T01:32:50;30.00;;;8.98;;
72404;SDS011;60395;52.020;113.548;2023-03-20T01:35:53;30.70;;;11.80;;
72404;SDS011;60395;52.020;113.548;2023-03-20T01:38:59;19.77;;;9.07;;
72404;SDS011;60395;52.020;113.548;2023-03-20T01:42:03;16.77;;;8.32;;
72404;SDS011;60395;52.020;113.548;2023-03-20T01:45:13;24.77;;;10.20;;
72404;SDS011;60395;52.020;113.548;2023-03-20T01:48:19;32.47;;;9.35;;
72404;SDS011;60395;52.020;113.548;2023-03-20T01:51:26;15.13;;;7.53;;
72404;SDS011;60395;52.020;113.548;2023-03-20T01:54:38;31.90;;;8.35;;
72404;SDS011;60395;52.020;113.548;2023-03-20T01:57:46;21.50;;;8.80;;
72404;SDS011;60395;52.020;113.548;2023-03-20T02:00:50;21.30;;;8.55;;
72404;SDS011;60395;52.020;113.548;2023-03-20T02:03:54;18.90;;;8.07;;
72404;SDS011;60395;52.020;113.548;2023-03-20T02:07:25;39.67;;;17.33;;
72404;SDS011;60395;52.020;113.548;2023-03-20T02:10:34;26.83;;;10.45;;
72404;SDS011;60395;52.020;113.548;2023-03-20T02:13:53;26.87;;;13.73;;
72404;SDS011;60395;52.020;113.548;2023-03-20T02:17:05;18.52;;;7.32;;
72404;SDS011;60395;52.020;113.548;2023-03-20T02:41:16;18.92;;;5.82;;
72404;SDS011;60395;52.020;113.548;2023-03-20T02:58:37;13.68;;;5.40;;
72404;SDS011;60395;52.020;113.548;2023-03-20T03:01:54;10.85;;;4.40;;
72404;SDS011;60395;52.020;113.548;2023-03-20T03:05:12;10.23;;;4.57;;
72404;SDS011;60395;52.020;113.548;2023-03-20T03:08:23;19.50;;;5.32;;
72404;SDS011;60395;52.020;113.548;2023-03-20T03:11:35;14.27;;;6.00;;
72404;SDS011;60395;52.020;113.548;2023-03-20T03:14:53;14.05;;;5.68;;
72404;SDS011;60395;52.020;113.548;2023-03-20T03:18:06;16.65;;;6.65;;
72404;SDS011;60395;52.020;113.548;2023-03-20T03:21:16;15.98;;;6.00;;
72404;SDS011;60395;52.020;113.548;2023-03-20T03:24:34;22.25;;;5.38;;
72404;SDS011;60395;52.020;113.548;2023-03-20T03:27:44;27.95;;;9.95;;
72404;SDS011;60395;52.020;113.548;2023-03-20T03:30:59;11.43;;;3.97;;
72404;SDS011;60395;52.020;113.548;2023-03-20T03:34:04;18.70;;;4.18;;
72404;SDS011;60395;52.020;113.548;2023-03-20T03:37:14;11.00;;;4.13;;
72404;SDS011;60395;52.020;113.548;2023-03-20T03:47:30;13.02;;;4.60;;
72404;SDS011;60395;52.020;113.548;2023-03-20T03:50:42;12.07;;;4.60;;
72404;SDS011;60395;52.020;113.548;2023-03-20T03:53:56;9.90;;;3.92;;
72404;SDS011;60395;52.020;113.548;2023-03-20T03:57:16;10.52;;;4.00;;
72404;SDS011;60395;52.020;113.548;2023-03-20T04:00:31;12.63;;;4.60;;
72404;SDS011;60395;52.020;113.548;2023-03-20T04:03:50;11.68;;;4.43;;
72404;SDS011;60395;52.020;113.548;2023-03-20T04:06:59;12.15;;;3.78;;
72404;SDS011;60395;52.020;113.548;2023-03-20T04:10:14;9.75;;;3.50;;
72404;SDS011;60395;52.020;113.548;2023-03-20T04:13:20;11.70;;;3.83;;
72404;SDS011;60395;52.020;113.548;2023-03-20T04:16:30;9.50;;;2.83;;
72404;SDS011;60395;52.020;113.548;2023-03-20T04:19:43;13.00;;;4.90;;
72404;SDS011;60395;52.020;113.548;2023-03-20T04:22:47;8.52;;;3.22;;
72404;SDS011;60395;52.020;113.548;2023-03-20T04:25:55;8.85;;;3.33;;
72404;SDS011;60395;52.020;113.548;2023-03-20T04:29:02;7.47;;;2.97;;
72404;SDS011;60395;52.020;113.548;2023-03-20T04:32:14;15.93;;;2.95;;
72404;SDS011;60395;52.020;113.548;2023-03-20T04:35:46;11.43;;;3.70;;
72404;SDS011;60395;52.020;113.548;2023-03-20T04:38:54;7.68;;;2.80;;
72404;SDS011;60395;52.020;113.548;2023-03-20T04:42:02;11.13;;;3.28;;
72404;SDS011;60395;52.020;113.548;2023-03-20T04:45:16;11.20;;;3.00;;
72404;SDS011;60395;52.020;113.548;2023-03-20T04:48:26;9.32;;;3.33;;
72404;SDS011;60395;52.020;113.548;2023-03-20T04:51:33;9.85;;;3.25;;
72404;SDS011;60395;52.020;113.548;2023-03-20T04:54:39;13.07;;;3.38;;
72404;SDS011;60395;52.020;113.548;2023-03-20T04:57:43;7.65;;;3.17;;
72404;SDS011;60395;52.020;113.548;2023-03-20T05:00:47;10.93;;;2.80;;
72404;SDS011;60395;52.020;113.548;2023-03-20T05:03:50;8.15;;;2.65;;
72404;SDS011;60395;52.020;113.548;2023-03-20T05:06:54;7.88;;;2.40;;
72404;SDS011;60395;52.020;113.548;2023-03-20T05:10:05;7.25;;;2.90;;
72404;SDS011;60395;52.020;113.548;2023-03-20T05:13:25;9.43;;;2.60;;
72404;SDS011;60395;52.020;113.548;2023-03-20T05:16:49;6.95;;;2.13;;
72404;SDS011;60395;52.020;113.548;2023-03-20T05:20:25;6.18;;;1.70;;
72404;SDS011;60395;52.020;113.548;2023-03-20T05:23:35;6.53;;;2.50;;
72404;SDS011;60395;52.020;113.548;2023-03-20T05:26:53;6.05;;;1.70;;
72404;SDS011;60395;52.020;113.548;2023-03-20T05:30:08;7.43;;;1.85;;
72404;SDS011;60395;52.020;113.548;2023-03-20T05:33:30;8.43;;;2.10;;
72404;SDS011;60395;52.020;113.548;2023-03-20T05:36:59;10.40;;;1.90;;
72404;SDS011;60395;52.020;113.548;2023-03-20T05:40:15;8.65;;;1.92;;
72404;SDS011;60395;52.020;113.548;2023-03-20T05:43:35;10.65;;;2.28;;
72404;SDS011;60395;52.020;113.548;2023-03-20T05:46:57;9.02;;;2.45;;
72404;SDS011;60395;52.020;113.548;2023-03-20T05:50:19;5.22;;;1.63;;
72404;SDS011;60395;52.020;113.548;2023-03-20T05:53:49;9.40;;;2.50;;
72404;SDS011;60395;52.020;113.548;2023-03-20T05:57:11;11.43;;;2.67;;
72404;SDS011;60395;52.020;113.548;2023-03-20T06:00:37;26.45;;;3.67;;
72404;SDS011;60395;52.020;113.548;2023-03-20T06:04:13;13.07;;;2.30;;
72404;SDS011;60395;52.020;113.548;2023-03-20T06:07:37;7.43;;;2.60;;
72404;SDS011;60395;52.020;113.548;2023-03-20T06:10:45;9.80;;;2.13;;
72404;SDS011;60395;52.020;113.548;2023-03-20T06:13:48;9.00;;;2.30;;
72404;SDS011;60395;52.020;113.548;2023-03-20T06:17:00;4.30;;;2.00;;
72404;SDS011;60395;52.020;113.548;2023-03-20T06:20:04;17.45;;;4.70;;
72404;SDS011;60395;52.020;113.548;2023-03-20T06:23:08;6.80;;;1.98;;
72404;SDS011;60395;52.020;113.548;2023-03-20T06:26:11;6.45;;;2.60;;
72404;SDS011;60395;52.020;113.548;2023-03-20T06:29:28;5.93;;;2.00;;
72404;SDS011;60395;52.020;113.548;2023-03-20T06:35:50;3.92;;;1.40;;
72404;SDS011;60395;52.020;113.548;2023-03-20T06:38:54;4.93;;;1.35;;
72404;SDS011;60395;52.020;113.548;2023-03-20T06:42:00;6.78;;;2.00;;
72404;SDS011;60395;52.020;113.548;2023-03-20T06:45:04;7.25;;;2.15;;
72404;SDS011;60395;52.020;113.548;2023-03-20T06:48:18;6.38;;;1.65;;
72404;SDS011;60395;52.020;113.548;2023-03-20T06:51:25;8.45;;;2.17;;
72404;SDS011;60395;52.020;113.548;2023-03-20T06:54:28;2.95;;;1.63;;
72404;SDS011;60395;52.020;113.548;2023-03-20T06:57:32;2.67;;;1.60;;
72404;SDS011;60395;52.020;113.548;2023-03-20T07:00:35;8.27;;;2.03;;
72404;SDS011;60395;52.020;113.548;2023-03-20T07:03:41;6.75;;;2.00;;
72404;SDS011;60395;52.020;113.548;2023-03-20T07:06:44;4.65;;;1.77;;
72404;SDS011;60395;52.020;113.548;2023-03-20T07:09:47;8.65;;;1.67;;
72404;SDS011;60395;52.020;113.548;2023-03-20T07:12:51;6.93;;;2.00;;
72404;SDS011;60395;52.020;113.548;2023-03-20T07:15:55;8.53;;;2.10;;
72404;SDS011;60395;52.020;113.548;2023-03-20T07:19:14;7.63;;;2.08;;
72404;SDS011;60395;52.020;113.548;2023-03-20T07:22:24;2.60;;;1.33;;
72404;SDS011;60395;52.020;113.548;2023-03-20T07:26:07;7.95;;;1.83;;
72404;SDS011;60395;52.020;113.548;2023-03-20T07:29:12;12.43;;;2.30;;
72404;SDS011;60395;52.020;113.548;2023-03-20T07:32:17;4.88;;;1.77;;
72404;SDS011;60395;52.020;113.548;2023-03-20T07:35:28;11.23;;;2.20;;
72404;SDS011;60395;52.020;113.548;2023-03-20T07:38:39;3.95;;;1.92;;
72404;SDS011;60395;52.020;113.548;2023-03-20T07:41:45;9.40;;;2.00;;
72404;SDS011;60395;52.020;113.548;2023-03-20T07:45:09;13.32;;;2.80;;
72404;SDS011;60395;52.020;113.548;2023-03-20T07:48:32;11.70;;;2.08;;
72404;SDS011;60395;52.020;113.548;2023-03-20T07:51:38;4.68;;;1.63;;
72404;SDS011;60395;52.020;113.548;2023-03-20T07:54:48;5.15;;;1.60;;
72404;SDS011;60395;52.020;113.548;2023-03-20T07:57:52;6.07;;;3.13;;
72404;SDS011;60395;52.020;113.548;2023-03-20T08:01:00;12.57;;;2.55;;
72404;SDS011;60395;52.020;113.548;2023-03-20T08:04:10;10.25;;;2.00;;
72404;SDS011;60395;52.020;113.548;2023-03-20T08:07:18;8.55;;;2.30;;
72404;SDS011;60395;52.020;113.548;2023-03-20T08:10:26;4.68;;;1.55;;
72404;SDS011;60395;52.020;113.548;2023-03-20T08:13:30;6.35;;;1.35;;
72404;SDS011;60395;52.020;113.548;2023-03-20T08:16:36;8.13;;;1.90;;
72404;SDS011;60395;52.020;113.548;2023-03-20T08:19:43;5.43;;;1.10;;
72404;SDS011;60395;52.020;113.548;2023-03-20T08:22:51;6.43;;;1.10;;
72404;SDS011;60395;52.020;113.548;2023-03-20T08:25:55;8.82;;;1.30;;
72404;SDS011;60395;52.020;113.548;2023-03-20T08:29:01;8.40;;;1.88;;
72404;SDS011;60395;52.020;113.548;2023-03-20T08:32:05;11.32;;;2.55;;
72404;SDS011;60395;52.020;113.548;2023-03-20T08:35:08;7.03;;;1.80;;
72404;SDS011;60395;52.020;113.548;2023-03-20T08:38:35;10.60;;;2.35;;
72404;SDS011;60395;52.020;113.548;2023-03-20T08:41:56;11.18;;;2.55;;
72404;SDS011;60395;52.020;113.548;2023-03-20T08:45:02;14.93;;;3.15;;
72404;SDS011;60395;52.020;113.548;2023-03-20T08:48:09;13.57;;;3.00;;
72404;SDS011;60395;52.020;113.548;2023-03-20T08:54:27;13.40;;;1.65;;
72404;SDS011;60395;52.020;113.548;2023-03-20T08:57:40;3.33;;;1.20;;
72404;SDS011;60395;52.020;113.548;2023-03-20T09:00:46;11.60;;;2.10;;
72404;SDS011;60395;52.020;113.548;2023-03-20T09:03:50;32.60;;;4.32;;
72404;SDS011;60395;52.020;113.548;2023-03-20T09:06:55;15.13;;;3.08;;
72404;SDS011;60395;52.020;113.548;2023-03-20T09:10:00;14.50;;;2.95;;
72404;SDS011;60395;52.020;113.548;2023-03-20T09:13:07;14.10;;;2.92;;
72404;SDS011;60395;52.020;113.548;2023-03-20T09:16:27;39.65;;;15.57;;
72404;SDS011;60395;52.020;113.548;2023-03-20T09:19:39;21.80;;;2.80;;
72404;SDS011;60395;52.020;113.548;2023-03-20T09:22:45;36.17;;;5.40;;
72404;SDS011;60395;52.020;113.548;2023-03-20T09:25:50;28.87;;;4.63;;
72404;SDS011;60395;52.020;113.548;2023-03-20T09:28:53;12.63;;;2.90;;
72404;SDS011;60395;52.020;113.548;2023-03-20T09:31:59;32.42;;;4.30;;
72404;SDS011;60395;52.020;113.548;2023-03-20T09:35:03;7.47;;;2.20;;
72404;SDS011;60395;52.020;113.548;2023-03-20T09:38:14;11.10;;;2.70;;
72404;SDS011;60395;52.020;113.548;2023-03-20T09:41:37;6.07;;;2.17;;
72404;SDS011;60395;52.020;113.548;2023-03-20T09:48:18;6.78;;;1.80;;
72404;SDS011;60395;52.020;113.548;2023-03-20T09:52:34;12.80;;;2.97;;
72404;SDS011;60395;52.020;113.548;2023-03-20T09:55:19;6.93;;;2.78;;
72404;SDS011;60395;52.020;113.548;2023-03-20T09:58:30;11.40;;;3.53;;
72404;SDS011;60395;52.020;113.548;2023-03-20T10:04:59;25.65;;;5.05;;
72404;SDS011;60395;52.020;113.548;2023-03-20T10:08:13;21.58;;;4.60;;
72404;SDS011;60395;52.020;113.548;2023-03-20T10:18:20;39.60;;;10.20;;
72404;SDS011;60395;52.020;113.548;2023-03-20T10:25:42;39.25;;;12.23;;
72404;SDS011;60395;52.020;113.548;2023-03-20T10:29:15;37.75;;;12.82;;
72404;SDS011;60395;52.020;113.548;2023-03-20T10:32:35;44.80;;;13.07;;
72404;SDS011;60395;52.020;113.548;2023-03-20T10:35:47;37.72;;;10.63;;
72404;SDS011;60395;52.020;113.548;2023-03-20T10:42:57;17.10;;;5.25;;
72404;SDS011;60395;52.020;113.548;2023-03-20T10:46:12;11.85;;;4.65;;
72404;SDS011;60395;52.020;113.548;2023-03-20T10:49:33;19.02;;;7.63;;
72404;SDS011;60395;52.020;113.548;2023-03-20T10:52:39;16.50;;;5.32;;
72404;SDS011;60395;52.020;113.548;2023-03-20T10:55:47;19.17;;;5.05;;
72404;SDS011;60395;52.020;113.548;2023-03-20T10:58:56;13.10;;;6.35;;
72404;SDS011;60395;52.020;113.548;2023-03-20T11:02:10;13.90;;;6.22;;
72404;SDS011;60395;52.020;113.548;2023-03-20T11:05:22;15.93;;;7.35;;
72404;SDS011;60395;52.020;113.548;2023-03-20T11:08:36;20.73;;;8.98;;
72404;SDS011;60395;52.020;113.548;2023-03-20T11:11:55;16.10;;;7.22;;
72404;SDS011;60395;52.020;113.548;2023-03-20T11:15:37;18.48;;;8.50;;
72404;SDS011;60395;52.020;113.548;2023-03-20T11:18:45;27.02;;;11.82;;
72404;SDS011;60395;52.020;113.548;2023-03-20T11:21:56;38.28;;;14.30;;
72404;SDS011;60395;52.020;113.548;2023-03-20T11:25:19;29.63;;;12.30;;
72404;SDS011;60395;52.020;113.548;2023-03-20T11:32:14;22.40;;;8.98;;
72404;SDS011;60395;52.020;113.548;2023-03-20T11:38:44;19.00;;;7.88;;
72404;SDS011;60395;52.020;113.548;2023-03-20T11:41:55;15.68;;;7.10;;
72404;SDS011;60395;52.020;113.548;2023-03-20T11:45:15;18.45;;;6.80;;
72404;SDS011;60395;52.020;113.548;2023-03-20T11:52:11;17.15;;;8.68;;
72404;SDS011;60395;52.020;113.548;2023-03-20T11:55:28;20.23;;;9.30;;
72404;SDS011;60395;52.020;113.548;2023-03-20T11:59:02;21.85;;;9.32;;
72404;SDS011;60395;52.020;113.548;2023-03-20T12:02:16;24.63;;;10.50;;
72404;SDS011;60395;52.020;113.548;2023-03-20T12:05:33;18.60;;;9.32;;
72404;SDS011;60395;52.020;113.548;2023-03-20T12:09:08;24.17;;;10.52;;
72404;SDS011;60395;52.020;113.548;2023-03-20T12:12:44;24.50;;;10.63;;
72404;SDS011;60395;52.020;113.548;2023-03-20T12:15:51;21.05;;;9.57;;
72404;SDS011;60395;52.020;113.548;2023-03-20T12:19:10;23.55;;;10.02;;
72404;SDS011;60395;52.020;113.548;2023-03-20T12:22:28;27.50;;;11.38;;
72404;SDS011;60395;52.020;113.548;2023-03-20T12:25:49;24.30;;;11.00;;
72404;SDS011;60395;52.020;113.548;2023-03-20T12:36:01;26.15;;;10.95;;
72404;SDS011;60395;52.020;113.548;2023-03-20T12:39:13;24.25;;;10.20;;
72404;SDS011;60395;52.020;113.548;2023-03-20T12:45:33;19.83;;;7.82;;
72404;SDS011;60395;52.020;113.548;2023-03-20T12:48:52;16.88;;;6.80;;
72404;SDS011;60395;52.020;113.548;2023-03-20T12:58:27;14.05;;;6.97;;
72404;SDS011;60395;52.020;113.548;2023-03-20T13:01:44;14.35;;;6.15;;
72404;SDS011;60395;52.020;113.548;2023-03-20T13:12:04;11.38;;;5.00;;
72404;SDS011;60395;52.020;113.548;2023-03-20T13:18:50;10.75;;;4.22;;
72404;SDS011;60395;52.020;113.548;2023-03-20T13:22:21;14.13;;;3.70;;
72404;SDS011;60395;52.020;113.548;2023-03-20T13:25:54;13.98;;;4.30;;
72404;SDS011;60395;52.020;113.548;2023-03-20T13:47:09;14.90;;;3.30;;
72404;SDS011;60395;52.020;113.548;2023-03-20T13:50:33;13.25;;;4.10;;
72404;SDS011;60395;52.020;113.548;2023-03-20T13:57:20;14.85;;;4.07;;
72404;SDS011;60395;52.020;113.548;2023-03-20T14:03:44;14.15;;;4.78;;
72404;SDS011;60395;52.020;113.548;2023-03-20T14:10:15;13.85;;;4.25;;
72404;SDS011;60395;52.020;113.548;2023-03-20T14:13:24;14.10;;;3.60;;
72404;SDS011;60395;52.020;113.548;2023-03-20T14:16:28;7.40;;;2.83;;
72404;SDS011;60395;52.020;113.548;2023-03-20T14:19:32;9.50;;;2.83;;
72404;SDS011;60395;52.020;113.548;2023-03-20T14:22:38;8.45;;;3.33;;
72404;SDS011;60395;52.020;113.548;2023-03-20T14:25:46;10.45;;;3.25;;
72404;SDS011;60395;52.020;113.548;2023-03-20T14:28:55;12.20;;;2.92;;
72404;SDS011;60395;52.020;113.548;2023-03-20T14:32:20;14.48;;;3.13;;
72404;SDS011;60395;52.020;113.548;2023-03-20T14:35:26;13.68;;;3.47;;
72404;SDS011;60395;52.020;113.548;2023-03-20T14:45:40;12.07;;;3.20;;
72404;SDS011;60395;52.020;113.548;2023-03-20T14:48:47;11.57;;;3.30;;
72404;SDS011;60395;52.020;113.548;2023-03-20T14:55:29;9.38;;;2.97;;
72404;SDS011;60395;52.020;113.548;2023-03-20T15:01:45;11.60;;;3.08;;
72404;SDS011;60395;52.020;113.548;2023-03-20T15:05:01;9.05;;;2.58;;
72404;SDS011;60395;52.020;113.548;2023-03-20T15:11:38;6.07;;;2.53;;
72404;SDS011;60395;52.020;113.548;2023-03-20T15:15:06;6.38;;;2.88;;
72404;SDS011;60395;52.020;113.548;2023-03-20T15:18:11;8.82;;;3.05;;
72404;SDS011;60395;52.020;113.548;2023-03-20T15:21:19;6.78;;;2.95;;
72404;SDS011;60395;52.020;113.548;2023-03-20T15:24:38;10.48;;;2.97;;
72404;SDS011;60395;52.020;113.548;2023-03-20T15:27:41;6.20;;;2.78;;
72404;SDS011;60395;52.020;113.548;2023-03-20T15:30:45;7.78;;;3.17;;
72404;SDS011;60395;52.020;113.548;2023-03-20T15:33:50;9.52;;;3.75;;
72404;SDS011;60395;52.020;113.548;2023-03-20T15:36:58;12.23;;;3.75;;
72404;SDS011;60395;52.020;113.548;2023-03-20T15:40:11;10.40;;;3.92;;
72404;SDS011;60395;52.020;113.548;2023-03-20T15:43:20;14.40;;;4.60;;
72404;SDS011;60395;52.020;113.548;2023-03-20T15:46:25;21.02;;;5.65;;
72404;SDS011;60395;52.020;113.548;2023-03-20T15:49:32;7.88;;;3.88;;
72404;SDS011;60395;52.020;113.548;2023-03-20T15:52:40;10.00;;;3.00;;
72404;SDS011;60395;52.020;113.548;2023-03-20T15:55:46;14.45;;;3.40;;
72404;SDS011;60395;52.020;113.548;2023-03-20T15:59:02;8.93;;;2.75;;
72404;SDS011;60395;52.020;113.548;2023-03-20T16:02:08;6.82;;;2.97;;
72404;SDS011;60395;52.020;113.548;2023-03-20T16:05:14;11.57;;;2.97;;
72404;SDS011;60395;52.020;113.548;2023-03-20T16:08:26;8.30;;;2.38;;
72404;SDS011;60395;52.020;113.548;2023-03-20T16:11:39;6.65;;;2.28;;
72404;SDS011;60395;52.020;113.548;2023-03-20T16:14:45;6.03;;;2.30;;
72404;SDS011;60395;52.020;113.548;2023-03-20T16:17:55;9.65;;;3.25;;
72404;SDS011;60395;52.020;113.548;2023-03-20T16:21:02;9.30;;;3.15;;
72404;SDS011;60395;52.020;113.548;2023-03-20T16:24:24;9.82;;;2.80;;
72404;SDS011;60395;52.020;113.548;2023-03-20T16:27:34;18.23;;;6.38;;
72404;SDS011;60395;52.020;113.548;2023-03-20T16:30:38;17.42;;;6.35;;
72404;SDS011;60395;52.020;113.548;2023-03-20T16:33:41;22.85;;;6.10;;
72404;SDS011;60395;52.020;113.548;2023-03-20T16:36:50;15.23;;;5.85;;
72404;SDS011;60395;52.020;113.548;2023-03-20T16:43:24;18.92;;;7.68;;
72404;SDS011;60395;52.020;113.548;2023-03-20T16:46:31;18.58;;;7.18;;
72404;SDS011;60395;52.020;113.548;2023-03-20T16:53:02;50.88;;;18.17;;
72404;SDS011;60395;52.020;113.548;2023-03-20T16:56:09;71.35;;;22.60;;
72404;SDS011;60395;52.020;113.548;2023-03-20T16:59:16;55.90;;;20.70;;
72404;SDS011;60395;52.020;113.548;2023-03-20T17:05:23;18.77;;;7.10;;
72404;SDS011;60395;52.020;113.548;2023-03-20T17:09:00;27.48;;;8.23;;
72404;SDS011;60395;52.020;113.548;2023-03-20T17:12:17;19.33;;;6.07;;
72404;SDS011;60395;52.020;113.548;2023-03-20T17:15:22;11.95;;;4.90;;
72404;SDS011;60395;52.020;113.548;2023-03-20T17:18:26;13.40;;;5.10;;
72404;SDS011;60395;52.020;113.548;2023-03-20T17:21:30;12.77;;;4.80;;
72404;SDS011;60395;52.020;113.548;2023-03-20T17:24:33;23.45;;;8.20;;
72404;SDS011;60395;52.020;113.548;2023-03-20T17:27:37;50.08;;;15.50;;
72404;SDS011;60395;52.020;113.548;2023-03-20T17:30:42;74.78;;;25.45;;
72404;SDS011;60395;52.020;113.548;2023-03-20T17:33:47;113.55;;;35.75;;
72404;SDS011;60395;52.020;113.548;2023-03-20T17:36:50;60.97;;;20.00;;
72404;SDS011;60395;52.020;113.548;2023-03-20T17:39:53;19.13;;;8.15;;
72404;SDS011;60395;52.020;113.548;2023-03-20T17:42:56;57.55;;;18.40;;
72404;SDS011;60395;52.020;113.548;2023-03-20T17:46:00;140.80;;;40.40;;
72404;SDS011;60395;52.020;113.548;2023-03-20T17:49:09;183.07;;;50.67;;
72404;SDS011;60395;52.020;113.548;2023-03-20T17:52:16;95.85;;;30.13;;
72404;SDS011;60395;52.020;113.548;2023-03-20T17:55:21;98.95;;;28.98;;
72404;SDS011;60395;52.020;113.548;2023-03-20T17:58:24;111.03;;;33.85;;
72404;SDS011;60395;52.020;113.548;2023-03-20T18:01:28;97.43;;;30.98;;
72404;SDS011;60395;52.020;113.548;2023-03-20T18:04:33;65.57;;;22.38;;
72404;SDS011;60395;52.020;113.548;2023-03-20T18:07:37;64.57;;;20.35;;
72404;SDS011;60395;52.020;113.548;2023-03-20T18:10:41;49.50;;;14.05;;
72404;SDS011;60395;52.020;113.548;2023-03-20T18:13:44;41.08;;;12.35;;
72404;SDS011;60395;52.020;113.548;2023-03-20T18:16:48;51.20;;;13.90;;
72404;SDS011;60395;52.020;113.548;2023-03-20T18:19:51;39.85;;;12.60;;
72404;SDS011;60395;52.020;113.548;2023-03-20T18:22:54;44.05;;;14.45;;
72404;SDS011;60395;52.020;113.548;2023-03-20T18:25:58;43.83;;;14.13;;
72404;SDS011;60395;52.020;113.548;2023-03-20T18:29:01;46.72;;;14.40;;
72404;SDS011;60395;52.020;113.548;2023-03-20T18:32:04;45.83;;;13.77;;
72404;SDS011;60395;52.020;113.548;2023-03-20T18:35:08;39.25;;;11.13;;
72404;SDS011;60395;52.020;113.548;2023-03-20T18:38:13;40.10;;;11.05;;
72404;SDS011;60395;52.020;113.548;2023-03-20T18:41:16;30.23;;;10.10;;
72404;SDS011;60395;52.020;113.548;2023-03-20T18:44:19;31.83;;;9.77;;
72404;SDS011;60395;52.020;113.548;2023-03-20T18:47:23;53.97;;;18.10;;
72404;SDS011;60395;52.020;113.548;2023-03-20T18:50:28;49.88;;;16.88;;
72404;SDS011;60395;52.020;113.548;2023-03-20T18:53:34;78.68;;;28.08;;
72404;SDS011;60395;52.020;113.548;2023-03-20T18:56:37;143.93;;;48.92;;
72404;SDS011;60395;52.020;113.548;2023-03-20T18:59:42;55.17;;;21.67;;
72404;SDS011;60395;52.020;113.548;2023-03-20T19:02:45;31.55;;;11.80;;
72404;SDS011;60395;52.020;113.548;2023-03-20T19:05:53;34.28;;;12.48;;
72404;SDS011;60395;52.020;113.548;2023-03-20T19:09:00;37.28;;;12.60;;
72404;SDS011;60395;52.020;113.548;2023-03-20T19:12:06;49.30;;;15.77;;
72404;SDS011;60395;52.020;113.548;2023-03-20T19:15:09;60.40;;;21.17;;
72404;SDS011;60395;52.020;113.548;2023-03-20T19:18:22;57.25;;;20.10;;
72404;SDS011;60395;52.020;113.548;2023-03-20T19:21:27;52.90;;;19.65;;
72404;SDS011;60395;52.020;113.548;2023-03-20T19:24:32;52.28;;;18.15;;
72404;SDS011;60395;52.020;113.548;2023-03-20T19:27:35;49.83;;;16.55;;
72404;SDS011;60395;52.020;113.548;2023-03-20T19:30:39;38.95;;;14.40;;
72404;SDS011;60395;52.020;113.548;2023-03-20T19:33:42;42.85;;;15.57;;
72404;SDS011;60395;52.020;113.548;2023-03-20T19:36:46;42.50;;;15.17;;
72404;SDS011;60395;52.020;113.548;2023-03-20T19:39:50;53.97;;;19.60;;
72404;SDS011;60395;52.020;113.548;2023-03-20T19:42:54;64.00;;;21.25;;
72404;SDS011;60395;52.020;113.548;2023-03-20T19:46:04;71.10;;;23.58;;
72404;SDS011;60395;52.020;113.548;2023-03-20T19:49:20;83.82;;;27.35;;
72404;SDS011;60395;52.020;113.548;2023-03-20T19:52:31;96.10;;;30.70;;
72404;SDS011;60395;52.020;113.548;2023-03-20T19:55:36;59.80;;;20.83;;
72404;SDS011;60395;52.020;113.548;2023-03-20T19:58:40;73.53;;;24.00;;
72404;SDS011;60395;52.020;113.548;2023-03-20T20:01:44;98.85;;;29.15;;
72404;SDS011;60395;52.020;113.548;2023-03-20T20:04:48;80.90;;;28.20;;
72404;SDS011;60395;52.020;113.548;2023-03-20T20:07:52;92.43;;;31.55;;
72404;SDS011;60395;52.020;113.548;2023-03-20T20:11:16;96.97;;;30.55;;
72404;SDS011;60395;52.020;113.548;2023-03-20T20:17:24;146.70;;;40.47;;
72404;SDS011;60395;52.020;113.548;2023-03-20T20:20:28;130.73;;;38.70;;
72404;SDS011;60395;52.020;113.548;2023-03-20T20:23:35;108.05;;;34.10;;
72404;SDS011;60395;52.020;113.548;2023-03-20T20:26:39;87.20;;;30.60;;
72404;SDS011;60395;52.020;113.548;2023-03-20T20:32:58;97.50;;;31.75;;
72404;SDS011;60395;52.020;113.548;2023-03-20T20:36:10;105.68;;;30.35;;
72404;SDS011;60395;52.020;113.548;2023-03-20T20:39:34;103.97;;;33.05;;
72404;SDS011;60395;52.020;113.548;2023-03-20T20:42:37;148.15;;;48.08;;
72404;SDS011;60395;52.020;113.548;2023-03-20T20:45:41;206.65;;;68.07;;
72404;SDS011;60395;52.020;113.548;2023-03-20T20:48:44;189.55;;;63.30;;
72404;SDS011;60395;52.020;113.548;2023-03-20T20:51:48;170.18;;;55.65;;
72404;SDS011;60395;52.020;113.548;2023-03-20T20:54:51;175.75;;;56.38;;
72404;SDS011;60395;52.020;113.548;2023-03-20T20:57:54;120.35;;;43.28;;
72404;SDS011;60395;52.020;113.548;2023-03-20T21:01:01;65.63;;;26.73;;
72404;SDS011;60395;52.020;113.548;2023-03-20T21:04:05;61.05;;;25.10;;